sensor_id;sensor_type;location;lat;lon;timestamp;temperature;humidity
14727;DHT22;7454;51.256;8.176;2022-10-16T00:00:38;13.00;84.10
14727;DHT22;7454;51.256;8.176;2022-10-16T00:03:05;13.00;84.20
14727;DHT22;7454;51.256;8.176;2022-10-16T00:05:32;13.00;84.60
14727;DHT22;7454;51.256;8.176;2022-10-16T00:07:58;12.90;84.80
14727;DHT22;7454;51.256;8.176;2022-10-16T00:10:24;12.90;84.40
14727;DHT22;7454;51.256;8.176;2022-10-16T00:12:49;13.00;84.40
14727;DHT22;7454;51.256;8.176;2022-10-16T00:15:15;12.90;84.40
14727;DHT22;7454;51.256;8.176;2022-10-16T00:17:41;12.90;84.80
14727;DHT22;7454;51.256;8.176;2022-10-16T00:20:07;12.80;84.90
14727;DHT22;7454;51.256;8.176;2022-10-16T00:22:33;12.80;84.70
14727;DHT22;7454;51.256;8.176;2022-10-16T00:24:59;12.80;84.50
14727;DHT22;7454;51.256;8.176;2022-10-16T00:27:24;12.80;84.50
14727;DHT22;7454;51.256;8.176;2022-10-16T00:29:50;12.80;84.80
14727;DHT22;7454;51.256;8.176;2022-10-16T00:32:17;12.80;84.80
14727;DHT22;7454;51.256;8.176;2022-10-16T00:34:43;12.80;84.80
14727;DHT22;7454;51.256;8.176;2022-10-16T00:37:09;12.80;85.10
14727;DHT22;7454;51.256;8.176;2022-10-16T00:39:35;12.90;85.60
14727;DHT22;7454;51.256;8.176;2022-10-16T00:42:00;12.80;84.90
14727;DHT22;7454;51.256;8.176;2022-10-16T00:47:11;12.80;84.80
14727;DHT22;7454;51.256;8.176;2022-10-16T00:49:40;12.80;85.50
14727;DHT22;7454;51.256;8.176;2022-10-16T00:52:05;12.80;85.30
14727;DHT22;7454;51.256;8.176;2022-10-16T00:54:31;12.90;85.40
14727;DHT22;7454;51.256;8.176;2022-10-16T00:56:59;12.90;85.80
14727;DHT22;7454;51.256;8.176;2022-10-16T00:59:28;12.90;85.20
14727;DHT22;7454;51.256;8.176;2022-10-16T01:01:55;12.90;84.70
14727;DHT22;7454;51.256;8.176;2022-10-16T01:04:22;12.70;85.00
14727;DHT22;7454;51.256;8.176;2022-10-16T01:06:58;12.90;84.60
14727;DHT22;7454;51.256;8.176;2022-10-16T01:09:44;12.90;85.80
14727;DHT22;7454;51.256;8.176;2022-10-16T01:12:15;12.90;85.30
14727;DHT22;7454;51.256;8.176;2022-10-16T01:14:48;12.90;84.30
14727;DHT22;7454;51.256;8.176;2022-10-16T01:17:21;12.80;84.40
14727;DHT22;7454;51.256;8.176;2022-10-16T01:22:29;12.80;84.20
14727;DHT22;7454;51.256;8.176;2022-10-16T01:25:02;12.70;83.90
14727;DHT22;7454;51.256;8.176;2022-10-16T01:27:30;12.60;84.20
14727;DHT22;7454;51.256;8.176;2022-10-16T01:30:02;12.60;84.30
14727;DHT22;7454;51.256;8.176;2022-10-16T01:33:07;12.60;84.70
14727;DHT22;7454;51.256;8.176;2022-10-16T01:35:35;12.60;84.50
14727;DHT22;7454;51.256;8.176;2022-10-16T01:40:32;12.70;86.10
14727;DHT22;7454;51.256;8.176;2022-10-16T01:43:00;12.70;85.70
14727;DHT22;7454;51.256;8.176;2022-10-16T01:45:29;12.70;85.60
14727;DHT22;7454;51.256;8.176;2022-10-16T01:47:57;12.80;84.70
14727;DHT22;7454;51.256;8.176;2022-10-16T01:50:25;12.70;84.50
14727;DHT22;7454;51.256;8.176;2022-10-16T01:52:52;12.80;84.80
14727;DHT22;7454;51.256;8.176;2022-10-16T01:55:22;12.70;85.10
14727;DHT22;7454;51.256;8.176;2022-10-16T01:57:51;12.70;85.00
14727;DHT22;7454;51.256;8.176;2022-10-16T02:00:17;12.70;84.80
14727;DHT22;7454;51.256;8.176;2022-10-16T02:02:45;12.70;84.70
14727;DHT22;7454;51.256;8.176;2022-10-16T02:05:17;12.70;85.00
14727;DHT22;7454;51.256;8.176;2022-10-16T02:07:47;12.70;84.80
14727;DHT22;7454;51.256;8.176;2022-10-16T02:10:13;12.80;85.10
14727;DHT22;7454;51.256;8.176;2022-10-16T02:12:40;12.80;85.60
14727;DHT22;7454;51.256;8.176;2022-10-16T02:15:09;12.90;86.50
14727;DHT22;7454;51.256;8.176;2022-10-16T02:17:35;12.90;84.60
14727;DHT22;7454;51.256;8.176;2022-10-16T02:20:00;12.80;85.10
14727;DHT22;7454;51.256;8.176;2022-10-16T02:22:28;12.80;85.00
14727;DHT22;7454;51.256;8.176;2022-10-16T02:25:04;12.90;85.40
14727;DHT22;7454;51.256;8.176;2022-10-16T02:27:33;12.90;85.70
14727;DHT22;7454;51.256;8.176;2022-10-16T02:30:07;13.10;86.10
14727;DHT22;7454;51.256;8.176;2022-10-16T02:32:39;13.00;86.10
14727;DHT22;7454;51.256;8.176;2022-10-16T02:35:06;13.00;86.00
14727;DHT22;7454;51.256;8.176;2022-10-16T02:37:33;12.90;84.70
14727;DHT22;7454;51.256;8.176;2022-10-16T02:39:59;12.90;85.00
14727;DHT22;7454;51.256;8.176;2022-10-16T02:42:28;12.80;84.80
14727;DHT22;7454;51.256;8.176;2022-10-16T02:44:55;12.80;84.70
14727;DHT22;7454;51.256;8.176;2022-10-16T02:47:20;12.80;85.00
14727;DHT22;7454;51.256;8.176;2022-10-16T02:49:46;12.80;85.00
14727;DHT22;7454;51.256;8.176;2022-10-16T02:52:12;12.80;85.00
14727;DHT22;7454;51.256;8.176;2022-10-16T02:54:37;12.80;85.10
14727;DHT22;7454;51.256;8.176;2022-10-16T02:57:03;12.80;85.20
14727;DHT22;7454;51.256;8.176;2022-10-16T02:59:28;12.80;85.50
14727;DHT22;7454;51.256;8.176;2022-10-16T03:01:54;12.80;85.60
14727;DHT22;7454;51.256;8.176;2022-10-16T03:04:20;12.80;85.70
14727;DHT22;7454;51.256;8.176;2022-10-16T03:06:45;12.80;85.80
14727;DHT22;7454;51.256;8.176;2022-10-16T03:09:11;12.80;84.60
14727;DHT22;7454;51.256;8.176;2022-10-16T03:11:36;12.70;84.20
14727;DHT22;7454;51.256;8.176;2022-10-16T03:14:02;12.60;84.30
14727;DHT22;7454;51.256;8.176;2022-10-16T03:16:28;12.60;84.30
14727;DHT22;7454;51.256;8.176;2022-10-16T03:18:53;12.60;85.20
14727;DHT22;7454;51.256;8.176;2022-10-16T03:21:19;12.60;85.20
14727;DHT22;7454;51.256;8.176;2022-10-16T03:23:44;12.60;84.50
14727;DHT22;7454;51.256;8.176;2022-10-16T03:26:10;12.50;84.80
14727;DHT22;7454;51.256;8.176;2022-10-16T03:28:36;12.60;86.30
14727;DHT22;7454;51.256;8.176;2022-10-16T03:31:01;12.60;86.60
14727;DHT22;7454;51.256;8.176;2022-10-16T03:33:27;12.60;86.30
14727;DHT22;7454;51.256;8.176;2022-10-16T03:35:53;12.80;86.50
14727;DHT22;7454;51.256;8.176;2022-10-16T03:38:19;12.60;86.80
14727;DHT22;7454;51.256;8.176;2022-10-16T03:40:45;12.70;86.80
14727;DHT22;7454;51.256;8.176;2022-10-16T03:43:10;12.70;86.50
14727;DHT22;7454;51.256;8.176;2022-10-16T03:45:36;12.70;86.50
14727;DHT22;7454;51.256;8.176;2022-10-16T03:48:01;12.70;85.80
14727;DHT22;7454;51.256;8.176;2022-10-16T03:50:28;12.80;85.80
14727;DHT22;7454;51.256;8.176;2022-10-16T03:52:54;12.90;85.30
14727;DHT22;7454;51.256;8.176;2022-10-16T03:55:20;12.90;85.50
14727;DHT22;7454;51.256;8.176;2022-10-16T03:57:46;12.80;84.00
14727;DHT22;7454;51.256;8.176;2022-10-16T04:00:11;12.70;83.90
14727;DHT22;7454;51.256;8.176;2022-10-16T04:02:38;12.70;84.10
14727;DHT22;7454;51.256;8.176;2022-10-16T04:05:04;12.60;84.30
14727;DHT22;7454;51.256;8.176;2022-10-16T04:07:29;12.60;84.40
14727;DHT22;7454;51.256;8.176;2022-10-16T04:09:55;12.60;85.20
14727;DHT22;7454;51.256;8.176;2022-10-16T04:12:22;12.60;85.30
14727;DHT22;7454;51.256;8.176;2022-10-16T04:14:47;12.70;85.10
14727;DHT22;7454;51.256;8.176;2022-10-16T04:17:13;12.60;85.20
14727;DHT22;7454;51.256;8.176;2022-10-16T04:19:39;12.60;84.90
14727;DHT22;7454;51.256;8.176;2022-10-16T04:22:04;12.60;84.80
14727;DHT22;7454;51.256;8.176;2022-10-16T04:24:30;12.60;85.20
14727;DHT22;7454;51.256;8.176;2022-10-16T04:26:56;12.60;84.70
14727;DHT22;7454;51.256;8.176;2022-10-16T04:29:21;12.60;84.80
14727;DHT22;7454;51.256;8.176;2022-10-16T04:31:47;12.50;84.90
14727;DHT22;7454;51.256;8.176;2022-10-16T04:34:13;12.50;85.30
14727;DHT22;7454;51.256;8.176;2022-10-16T04:36:38;12.60;85.60
14727;DHT22;7454;51.256;8.176;2022-10-16T04:39:04;12.50;85.90
14727;DHT22;7454;51.256;8.176;2022-10-16T04:41:29;12.60;85.40
14727;DHT22;7454;51.256;8.176;2022-10-16T04:43:55;12.60;85.00
14727;DHT22;7454;51.256;8.176;2022-10-16T04:46:21;12.60;85.00
14727;DHT22;7454;51.256;8.176;2022-10-16T04:48:46;12.60;85.30
14727;DHT22;7454;51.256;8.176;2022-10-16T04:51:12;12.60;85.40
14727;DHT22;7454;51.256;8.176;2022-10-16T04:53:38;12.60;85.10
14727;DHT22;7454;51.256;8.176;2022-10-16T04:56:03;12.60;85.10
14727;DHT22;7454;51.256;8.176;2022-10-16T04:58:29;12.60;84.80
14727;DHT22;7454;51.256;8.176;2022-10-16T05:00:55;12.80;84.70
14727;DHT22;7454;51.256;8.176;2022-10-16T05:03:20;12.70;84.60
14727;DHT22;7454;51.256;8.176;2022-10-16T05:05:46;12.60;84.50
14727;DHT22;7454;51.256;8.176;2022-10-16T05:08:13;12.60;84.60
14727;DHT22;7454;51.256;8.176;2022-10-16T05:10:40;12.50;84.70
14727;DHT22;7454;51.256;8.176;2022-10-16T05:13:07;12.50;85.20
14727;DHT22;7454;51.256;8.176;2022-10-16T05:15:33;12.50;84.70
14727;DHT22;7454;51.256;8.176;2022-10-16T05:17:58;12.50;85.00
14727;DHT22;7454;51.256;8.176;2022-10-16T05:20:24;12.50;84.70
14727;DHT22;7454;51.256;8.176;2022-10-16T05:22:49;12.50;84.60
14727;DHT22;7454;51.256;8.176;2022-10-16T05:25:15;12.40;84.30
14727;DHT22;7454;51.256;8.176;2022-10-16T05:27:41;12.50;84.70
14727;DHT22;7454;51.256;8.176;2022-10-16T05:30:06;12.50;85.20
14727;DHT22;7454;51.256;8.176;2022-10-16T05:32:33;12.50;85.00
14727;DHT22;7454;51.256;8.176;2022-10-16T05:34:58;12.40;85.20
14727;DHT22;7454;51.256;8.176;2022-10-16T05:37:25;12.70;85.50
14727;DHT22;7454;51.256;8.176;2022-10-16T05:39:52;12.50;85.50
14727;DHT22;7454;51.256;8.176;2022-10-16T05:42:18;12.50;85.80
14727;DHT22;7454;51.256;8.176;2022-10-16T05:44:44;12.60;85.40
14727;DHT22;7454;51.256;8.176;2022-10-16T05:47:09;12.60;85.50
14727;DHT22;7454;51.256;8.176;2022-10-16T05:49:36;12.60;85.70
14727;DHT22;7454;51.256;8.176;2022-10-16T05:52:01;12.60;85.80
14727;DHT22;7454;51.256;8.176;2022-10-16T05:54:27;12.60;85.50
14727;DHT22;7454;51.256;8.176;2022-10-16T05:56:53;12.70;85.50
14727;DHT22;7454;51.256;8.176;2022-10-16T05:59:18;12.70;85.30
14727;DHT22;7454;51.256;8.176;2022-10-16T06:01:44;12.80;84.80
14727;DHT22;7454;51.256;8.176;2022-10-16T06:04:09;12.70;84.90
14727;DHT22;7454;51.256;8.176;2022-10-16T06:06:35;12.70;84.70
14727;DHT22;7454;51.256;8.176;2022-10-16T06:09:02;12.70;84.90
14727;DHT22;7454;51.256;8.176;2022-10-16T06:11:29;12.80;84.90
14727;DHT22;7454;51.256;8.176;2022-10-16T06:13:57;12.80;84.90
14727;DHT22;7454;51.256;8.176;2022-10-16T06:16:27;12.80;85.20
14727;DHT22;7454;51.256;8.176;2022-10-16T06:18:53;12.80;84.90
14727;DHT22;7454;51.256;8.176;2022-10-16T06:21:20;12.80;85.00
14727;DHT22;7454;51.256;8.176;2022-10-16T06:23:48;12.90;85.10
14727;DHT22;7454;51.256;8.176;2022-10-16T06:26:14;12.80;85.10
14727;DHT22;7454;51.256;8.176;2022-10-16T06:28:42;12.80;85.80
14727;DHT22;7454;51.256;8.176;2022-10-16T06:31:08;12.90;85.70
14727;DHT22;7454;51.256;8.176;2022-10-16T06:33:35;12.90;85.50
14727;DHT22;7454;51.256;8.176;2022-10-16T06:36:05;12.90;86.10
14727;DHT22;7454;51.256;8.176;2022-10-16T06:38:38;12.90;86.10
14727;DHT22;7454;51.256;8.176;2022-10-16T06:41:04;13.00;86.00
14727;DHT22;7454;51.256;8.176;2022-10-16T06:43:30;13.00;85.60
14727;DHT22;7454;51.256;8.176;2022-10-16T06:46:04;13.00;85.90
14727;DHT22;7454;51.256;8.176;2022-10-16T06:48:30;13.00;85.80
14727;DHT22;7454;51.256;8.176;2022-10-16T06:51:00;13.10;85.70
14727;DHT22;7454;51.256;8.176;2022-10-16T06:53:31;13.10;85.30
14727;DHT22;7454;51.256;8.176;2022-10-16T06:56:08;13.10;85.50
14727;DHT22;7454;51.256;8.176;2022-10-16T06:58:35;13.10;85.30
14727;DHT22;7454;51.256;8.176;2022-10-16T07:01:01;13.10;85.60
14727;DHT22;7454;51.256;8.176;2022-10-16T07:03:27;13.20;85.40
14727;DHT22;7454;51.256;8.176;2022-10-16T07:05:52;13.20;85.80
14727;DHT22;7454;51.256;8.176;2022-10-16T07:08:18;13.20;86.00
14727;DHT22;7454;51.256;8.176;2022-10-16T07:10:43;13.00;85.80
14727;DHT22;7454;51.256;8.176;2022-10-16T07:13:09;13.20;85.50
14727;DHT22;7454;51.256;8.176;2022-10-16T07:15:38;13.20;85.40
14727;DHT22;7454;51.256;8.176;2022-10-16T07:18:03;13.30;85.50
14727;DHT22;7454;51.256;8.176;2022-10-16T07:20:29;13.20;85.20
14727;DHT22;7454;51.256;8.176;2022-10-16T07:22:55;13.30;84.90
14727;DHT22;7454;51.256;8.176;2022-10-16T07:25:20;13.40;85.00
14727;DHT22;7454;51.256;8.176;2022-10-16T07:27:46;13.40;84.80
14727;DHT22;7454;51.256;8.176;2022-10-16T07:30:11;13.50;84.60
14727;DHT22;7454;51.256;8.176;2022-10-16T07:32:37;13.50;85.00
14727;DHT22;7454;51.256;8.176;2022-10-16T07:35:03;13.50;85.00
14727;DHT22;7454;51.256;8.176;2022-10-16T07:37:29;13.50;85.20
14727;DHT22;7454;51.256;8.176;2022-10-16T07:39:55;13.60;84.50
14727;DHT22;7454;51.256;8.176;2022-10-16T07:42:21;13.60;84.30
14727;DHT22;7454;51.256;8.176;2022-10-16T07:44:47;13.60;84.40
14727;DHT22;7454;51.256;8.176;2022-10-16T07:47:12;13.70;84.60
14727;DHT22;7454;51.256;8.176;2022-10-16T07:49:38;13.70;84.60
14727;DHT22;7454;51.256;8.176;2022-10-16T07:52:04;13.80;84.50
14727;DHT22;7454;51.256;8.176;2022-10-16T07:54:29;13.90;84.60
14727;DHT22;7454;51.256;8.176;2022-10-16T07:56:55;13.80;84.30
14727;DHT22;7454;51.256;8.176;2022-10-16T07:59:21;13.80;84.50
14727;DHT22;7454;51.256;8.176;2022-10-16T08:01:46;13.90;84.70
14727;DHT22;7454;51.256;8.176;2022-10-16T08:04:12;13.80;85.00
14727;DHT22;7454;51.256;8.176;2022-10-16T08:06:38;13.90;84.70
14727;DHT22;7454;51.256;8.176;2022-10-16T08:09:05;14.00;84.60
14727;DHT22;7454;51.256;8.176;2022-10-16T08:11:32;14.00;84.50
14727;DHT22;7454;51.256;8.176;2022-10-16T08:13:58;14.10;84.60
14727;DHT22;7454;51.256;8.176;2022-10-16T08:16:24;14.10;84.50
14727;DHT22;7454;51.256;8.176;2022-10-16T08:18:49;14.10;84.60
14727;DHT22;7454;51.256;8.176;2022-10-16T08:21:17;14.20;84.60
14727;DHT22;7454;51.256;8.176;2022-10-16T08:23:45;14.10;84.40
14727;DHT22;7454;51.256;8.176;2022-10-16T08:26:11;14.20;84.20
14727;DHT22;7454;51.256;8.176;2022-10-16T08:28:37;14.20;84.40
14727;DHT22;7454;51.256;8.176;2022-10-16T08:31:11;14.20;84.20
14727;DHT22;7454;51.256;8.176;2022-10-16T08:33:38;14.20;84.30
14727;DHT22;7454;51.256;8.176;2022-10-16T08:36:05;14.20;84.10
14727;DHT22;7454;51.256;8.176;2022-10-16T08:38:31;14.20;83.90
14727;DHT22;7454;51.256;8.176;2022-10-16T08:41:00;14.20;84.10
14727;DHT22;7454;51.256;8.176;2022-10-16T08:43:56;14.20;84.20
14727;DHT22;7454;51.256;8.176;2022-10-16T08:46:41;14.30;84.30
14727;DHT22;7454;51.256;8.176;2022-10-16T08:49:10;14.40;83.90
14727;DHT22;7454;51.256;8.176;2022-10-16T08:51:38;14.40;83.60
14727;DHT22;7454;51.256;8.176;2022-10-16T08:54:12;14.40;84.10
14727;DHT22;7454;51.256;8.176;2022-10-16T08:56:48;14.50;83.50
14727;DHT22;7454;51.256;8.176;2022-10-16T08:59:14;14.50;83.40
14727;DHT22;7454;51.256;8.176;2022-10-16T09:01:44;14.50;83.40
14727;DHT22;7454;51.256;8.176;2022-10-16T09:07:31;14.60;83.20
14727;DHT22;7454;51.256;8.176;2022-10-16T09:12:52;14.60;82.90
14727;DHT22;7454;51.256;8.176;2022-10-16T09:18:12;14.60;82.70
14727;DHT22;7454;51.256;8.176;2022-10-16T09:23:25;14.70;82.70
14727;DHT22;7454;51.256;8.176;2022-10-16T09:25:52;14.70;82.60
14727;DHT22;7454;51.256;8.176;2022-10-16T09:28:18;14.80;82.50
14727;DHT22;7454;51.256;8.176;2022-10-16T09:30:44;14.80;82.40
14727;DHT22;7454;51.256;8.176;2022-10-16T09:33:12;14.80;82.30
14727;DHT22;7454;51.256;8.176;2022-10-16T09:35:39;14.80;82.10
14727;DHT22;7454;51.256;8.176;2022-10-16T09:38:07;14.80;81.90
14727;DHT22;7454;51.256;8.176;2022-10-16T09:40:37;14.80;81.80
14727;DHT22;7454;51.256;8.176;2022-10-16T09:45:54;14.80;81.90
14727;DHT22;7454;51.256;8.176;2022-10-16T09:48:21;14.90;81.90
14727;DHT22;7454;51.256;8.176;2022-10-16T09:51:01;14.90;82.00
14727;DHT22;7454;51.256;8.176;2022-10-16T09:53:37;14.90;81.80
14727;DHT22;7454;51.256;8.176;2022-10-16T09:56:05;15.00;81.80
14727;DHT22;7454;51.256;8.176;2022-10-16T09:58:31;15.10;81.60
14727;DHT22;7454;51.256;8.176;2022-10-16T10:00:58;15.10;81.50
14727;DHT22;7454;51.256;8.176;2022-10-16T10:03:32;15.10;81.50
14727;DHT22;7454;51.256;8.176;2022-10-16T10:05:59;15.20;81.10
14727;DHT22;7454;51.256;8.176;2022-10-16T10:08:26;15.20;81.30
14727;DHT22;7454;51.256;8.176;2022-10-16T10:10:52;15.10;80.90
14727;DHT22;7454;51.256;8.176;2022-10-16T10:13:20;15.20;81.00
14727;DHT22;7454;51.256;8.176;2022-10-16T10:15:47;15.10;80.90
14727;DHT22;7454;51.256;8.176;2022-10-16T10:18:16;15.10;80.90
14727;DHT22;7454;51.256;8.176;2022-10-16T10:20:44;15.10;80.80
14727;DHT22;7454;51.256;8.176;2022-10-16T10:23:20;15.10;80.60
14727;DHT22;7454;51.256;8.176;2022-10-16T10:31:27;15.00;80.50
14727;DHT22;7454;51.256;8.176;2022-10-16T10:37:06;15.10;80.60
14727;DHT22;7454;51.256;8.176;2022-10-16T10:39:44;15.10;80.50
14727;DHT22;7454;51.256;8.176;2022-10-16T10:42:22;15.20;80.50
14727;DHT22;7454;51.256;8.176;2022-10-16T10:50:22;15.40;80.20
14727;DHT22;7454;51.256;8.176;2022-10-16T10:52:56;15.50;80.30
14727;DHT22;7454;51.256;8.176;2022-10-16T10:58:12;15.50;80.20
14727;DHT22;7454;51.256;8.176;2022-10-16T11:06:40;15.60;80.20
14727;DHT22;7454;51.256;8.176;2022-10-16T11:09:17;15.60;80.10
14727;DHT22;7454;51.256;8.176;2022-10-16T11:11:46;15.70;80.20
14727;DHT22;7454;51.256;8.176;2022-10-16T11:14:30;15.70;79.80
14727;DHT22;7454;51.256;8.176;2022-10-16T11:19:45;15.80;80.00
14727;DHT22;7454;51.256;8.176;2022-10-16T11:22:18;15.90;80.00
14727;DHT22;7454;51.256;8.176;2022-10-16T11:28:11;16.00;79.90
14727;DHT22;7454;51.256;8.176;2022-10-16T11:30:23;16.00;79.30
14727;DHT22;7454;51.256;8.176;2022-10-16T11:33:02;16.00;79.60
14727;DHT22;7454;51.256;8.176;2022-10-16T11:41:10;15.90;79.80
14727;DHT22;7454;51.256;8.176;2022-10-16T11:43:42;15.90;79.70
14727;DHT22;7454;51.256;8.176;2022-10-16T11:46:10;15.90;79.70
14727;DHT22;7454;51.256;8.176;2022-10-16T11:48:41;15.80;79.50
14727;DHT22;7454;51.256;8.176;2022-10-16T11:51:14;15.90;79.40
14727;DHT22;7454;51.256;8.176;2022-10-16T11:54:04;16.00;79.40
14727;DHT22;7454;51.256;8.176;2022-10-16T11:56:36;15.90;79.50
14727;DHT22;7454;51.256;8.176;2022-10-16T11:59:16;16.00;79.70
14727;DHT22;7454;51.256;8.176;2022-10-16T12:04:38;16.10;79.60
14727;DHT22;7454;51.256;8.176;2022-10-16T12:07:14;16.20;79.40
14727;DHT22;7454;51.256;8.176;2022-10-16T12:09:43;16.20;79.30
14727;DHT22;7454;51.256;8.176;2022-10-16T12:12:25;16.30;78.90
14727;DHT22;7454;51.256;8.176;2022-10-16T12:15:02;16.30;79.00
14727;DHT22;7454;51.256;8.176;2022-10-16T12:17:45;16.30;78.90
14727;DHT22;7454;51.256;8.176;2022-10-16T12:22:40;16.20;79.00
14727;DHT22;7454;51.256;8.176;2022-10-16T12:25:19;16.20;78.80
14727;DHT22;7454;51.256;8.176;2022-10-16T12:28:02;16.20;79.00
14727;DHT22;7454;51.256;8.176;2022-10-16T12:30:31;16.10;78.90
14727;DHT22;7454;51.256;8.176;2022-10-16T12:33:00;16.10;79.00
14727;DHT22;7454;51.256;8.176;2022-10-16T12:35:29;16.10;79.20
14727;DHT22;7454;51.256;8.176;2022-10-16T12:41:02;16.00;79.00
14727;DHT22;7454;51.256;8.176;2022-10-16T12:48:33;16.20;79.20
14727;DHT22;7454;51.256;8.176;2022-10-16T12:51:20;16.10;78.90
14727;DHT22;7454;51.256;8.176;2022-10-16T12:56:46;16.10;78.90
14727;DHT22;7454;51.256;8.176;2022-10-16T13:02:20;16.10;79.20
14727;DHT22;7454;51.256;8.176;2022-10-16T13:05:13;16.10;79.00
14727;DHT22;7454;51.256;8.176;2022-10-16T13:13:06;16.00;79.10
14727;DHT22;7454;51.256;8.176;2022-10-16T13:18:19;16.10;79.00
14727;DHT22;7454;51.256;8.176;2022-10-16T13:29:12;16.20;78.80
14727;DHT22;7454;51.256;8.176;2022-10-16T13:31:39;16.10;78.90
14727;DHT22;7454;51.256;8.176;2022-10-16T13:34:04;16.10;78.80
14727;DHT22;7454;51.256;8.176;2022-10-16T13:36:34;16.20;79.00
14727;DHT22;7454;51.256;8.176;2022-10-16T13:41:44;16.10;79.10
14727;DHT22;7454;51.256;8.176;2022-10-16T13:44:28;16.10;79.10
14727;DHT22;7454;51.256;8.176;2022-10-16T13:47:00;16.10;79.00
14727;DHT22;7454;51.256;8.176;2022-10-16T13:49:26;16.10;79.20
14727;DHT22;7454;51.256;8.176;2022-10-16T13:51:56;16.10;79.30
14727;DHT22;7454;51.256;8.176;2022-10-16T13:54:23;16.00;79.10
14727;DHT22;7454;51.256;8.176;2022-10-16T13:56:49;16.00;79.10
14727;DHT22;7454;51.256;8.176;2022-10-16T14:02:00;16.00;79.30
14727;DHT22;7454;51.256;8.176;2022-10-16T14:04:34;16.10;79.50
14727;DHT22;7454;51.256;8.176;2022-10-16T14:07:04;16.10;79.40
14727;DHT22;7454;51.256;8.176;2022-10-16T14:09:30;16.00;79.30
14727;DHT22;7454;51.256;8.176;2022-10-16T14:14:57;16.10;79.30
14727;DHT22;7454;51.256;8.176;2022-10-16T14:17:43;16.10;79.30
14727;DHT22;7454;51.256;8.176;2022-10-16T14:20:12;16.20;79.20
14727;DHT22;7454;51.256;8.176;2022-10-16T14:22:40;16.10;78.60
14727;DHT22;7454;51.256;8.176;2022-10-16T14:27:44;16.10;78.90
14727;DHT22;7454;51.256;8.176;2022-10-16T14:30:18;16.10;79.00
14727;DHT22;7454;51.256;8.176;2022-10-16T14:32:56;16.10;79.10
14727;DHT22;7454;51.256;8.176;2022-10-16T14:35:27;16.10;79.00
14727;DHT22;7454;51.256;8.176;2022-10-16T14:37:57;16.10;79.00
14727;DHT22;7454;51.256;8.176;2022-10-16T14:40:24;16.10;79.00
14727;DHT22;7454;51.256;8.176;2022-10-16T14:42:51;16.10;78.80
14727;DHT22;7454;51.256;8.176;2022-10-16T14:45:26;16.20;78.80
14727;DHT22;7454;51.256;8.176;2022-10-16T14:48:00;16.10;78.90
14727;DHT22;7454;51.256;8.176;2022-10-16T14:50:28;16.20;79.00
14727;DHT22;7454;51.256;8.176;2022-10-16T14:52:54;16.20;79.30
14727;DHT22;7454;51.256;8.176;2022-10-16T14:55:20;16.20;79.40
14727;DHT22;7454;51.256;8.176;2022-10-16T14:57:46;16.20;79.30
14727;DHT22;7454;51.256;8.176;2022-10-16T15:02:40;16.20;79.60
14727;DHT22;7454;51.256;8.176;2022-10-16T15:05:14;16.20;79.50
14727;DHT22;7454;51.256;8.176;2022-10-16T15:07:47;16.20;79.80
14727;DHT22;7454;51.256;8.176;2022-10-16T15:10:14;16.20;79.80
14727;DHT22;7454;51.256;8.176;2022-10-16T15:12:41;16.20;79.90
14727;DHT22;7454;51.256;8.176;2022-10-16T15:15:21;16.00;80.00
14727;DHT22;7454;51.256;8.176;2022-10-16T15:17:49;16.10;80.30
14727;DHT22;7454;51.256;8.176;2022-10-16T15:20:21;16.10;80.30
14727;DHT22;7454;51.256;8.176;2022-10-16T15:22:47;15.90;80.20
14727;DHT22;7454;51.256;8.176;2022-10-16T15:25:26;16.00;80.30
14727;DHT22;7454;51.256;8.176;2022-10-16T15:27:54;16.00;80.30
14727;DHT22;7454;51.256;8.176;2022-10-16T15:30:20;16.00;80.50
14727;DHT22;7454;51.256;8.176;2022-10-16T15:32:46;15.90;80.40
14727;DHT22;7454;51.256;8.176;2022-10-16T15:35:11;15.90;80.30
14727;DHT22;7454;51.256;8.176;2022-10-16T15:37:37;15.90;80.40
14727;DHT22;7454;51.256;8.176;2022-10-16T15:40:03;16.00;80.40
14727;DHT22;7454;51.256;8.176;2022-10-16T15:42:29;15.90;80.30
14727;DHT22;7454;51.256;8.176;2022-10-16T15:44:54;15.90;80.30
14727;DHT22;7454;51.256;8.176;2022-10-16T15:47:20;15.90;80.20
14727;DHT22;7454;51.256;8.176;2022-10-16T15:49:45;15.90;80.40
14727;DHT22;7454;51.256;8.176;2022-10-16T15:52:11;15.90;80.60
14727;DHT22;7454;51.256;8.176;2022-10-16T15:54:37;15.90;80.80
14727;DHT22;7454;51.256;8.176;2022-10-16T15:57:02;15.80;81.10
14727;DHT22;7454;51.256;8.176;2022-10-16T15:59:28;15.80;81.20
14727;DHT22;7454;51.256;8.176;2022-10-16T16:01:54;15.70;81.20
14727;DHT22;7454;51.256;8.176;2022-10-16T16:04:19;15.70;81.30
14727;DHT22;7454;51.256;8.176;2022-10-16T16:06:45;15.70;81.30
14727;DHT22;7454;51.256;8.176;2022-10-16T16:09:11;15.60;81.30
14727;DHT22;7454;51.256;8.176;2022-10-16T16:11:38;15.60;81.50
14727;DHT22;7454;51.256;8.176;2022-10-16T16:14:05;15.60;81.60
14727;DHT22;7454;51.256;8.176;2022-10-16T16:16:31;15.50;81.80
14727;DHT22;7454;51.256;8.176;2022-10-16T16:19:02;15.70;81.90
14727;DHT22;7454;51.256;8.176;2022-10-16T16:21:28;15.40;81.90
14727;DHT22;7454;51.256;8.176;2022-10-16T16:23:54;15.40;81.90
14727;DHT22;7454;51.256;8.176;2022-10-16T16:26:23;15.40;81.90
14727;DHT22;7454;51.256;8.176;2022-10-16T16:28:55;15.40;81.90
14727;DHT22;7454;51.256;8.176;2022-10-16T16:31:28;15.30;81.90
14727;DHT22;7454;51.256;8.176;2022-10-16T16:33:55;15.30;81.90
14727;DHT22;7454;51.256;8.176;2022-10-16T16:36:22;15.30;82.00
14727;DHT22;7454;51.256;8.176;2022-10-16T16:38:48;15.40;82.00
14727;DHT22;7454;51.256;8.176;2022-10-16T16:41:15;15.30;82.00
14727;DHT22;7454;51.256;8.176;2022-10-16T16:43:41;15.30;82.00
14727;DHT22;7454;51.256;8.176;2022-10-16T16:46:07;15.20;82.10
14727;DHT22;7454;51.256;8.176;2022-10-16T16:48:33;15.20;82.00
14727;DHT22;7454;51.256;8.176;2022-10-16T16:51:06;15.20;81.90
14727;DHT22;7454;51.256;8.176;2022-10-16T16:53:33;15.10;82.00
14727;DHT22;7454;51.256;8.176;2022-10-16T16:56:03;15.00;82.10
14727;DHT22;7454;51.256;8.176;2022-10-16T16:58:30;15.10;82.00
14727;DHT22;7454;51.256;8.176;2022-10-16T17:00:56;15.10;82.00
14727;DHT22;7454;51.256;8.176;2022-10-16T17:03:26;15.10;81.80
14727;DHT22;7454;51.256;8.176;2022-10-16T17:05:56;15.10;81.80
14727;DHT22;7454;51.256;8.176;2022-10-16T17:08:22;15.00;81.70
14727;DHT22;7454;51.256;8.176;2022-10-16T17:10:48;15.10;81.80
14727;DHT22;7454;51.256;8.176;2022-10-16T17:13:21;15.10;81.90
14727;DHT22;7454;51.256;8.176;2022-10-16T17:15:48;15.10;82.00
14727;DHT22;7454;51.256;8.176;2022-10-16T17:18:14;14.90;82.00
14727;DHT22;7454;51.256;8.176;2022-10-16T17:20:40;15.00;82.10
14727;DHT22;7454;51.256;8.176;2022-10-16T17:23:07;15.00;82.20
14727;DHT22;7454;51.256;8.176;2022-10-16T17:25:36;15.00;82.00
14727;DHT22;7454;51.256;8.176;2022-10-16T17:28:02;15.00;81.90
14727;DHT22;7454;51.256;8.176;2022-10-16T17:30:28;15.10;81.80
14727;DHT22;7454;51.256;8.176;2022-10-16T17:32:54;15.00;81.80
14727;DHT22;7454;51.256;8.176;2022-10-16T17:35:19;15.00;81.90
14727;DHT22;7454;51.256;8.176;2022-10-16T17:37:45;15.10;82.00